Time;durP1;ratioP1;P1;durP2;ratioP2;P2;SDS_P1;SDS_P2;PMS_P1;PMS_P2;Temp;Humidity;BMP_temperature;BMP_pressure;BME280_temperature;BME280_humidity;BME280_pressure;Samples;Min_cycle;Max_cycle;Signal;HPM_P1;HPM_P2
2022/06/14 00:03:13;;;;;;;;;;;;;;;19.32;83.91;99641.22;5042466;28;19931;-53
2022/06/14 00:05:38;;;;;;;;;;;;;;;19.47;83.96;99642.06;5044035;28;20463;-50
2022/06/14 00:08:03;;;;;;;;;;;;;;;19.17;87.11;99643.75;5041080;28;19976;-51
2022/06/14 00:10:29;;;;;;;;;;;;;;;19.10;90.42;99652.03;5027064;28;19920;-53
2022/06/14 00:12:54;;;;;;;;;;;;;;;19.01;91.37;99656.00;5042439;28;19925;-53
2022/06/14 00:15:19;;;;;;;;;;;;;;;19.17;91.53;99664.63;5041998;28;20007;-51
2022/06/14 00:17:45;;;;;;;;;;;;;;;18.94;92.86;99657.28;5042080;28;20959;-54
2022/06/14 00:20:10;;;;;;;;;;;;;;;18.43;94.47;99656.56;5039931;28;19974;-54
2022/06/14 00:22:35;;;;;;;;;;;;;;;18.67;96.18;99660.44;5041731;28;19920;-55
2022/06/14 00:25:01;;;;;;;;;;;;;;;18.48;96.06;99655.41;5042871;28;19964;-52
2022/06/14 00:27:26;;;;;;;;;;;;;;;18.59;94.59;99636.56;5041330;28;20029;-50
2022/06/14 00:29:51;;;;;;;;;;;;;;;18.77;93.65;99639.94;5042257;28;20016;-52
2022/06/14 00:32:16;;;;;;;;;;;;;;;19.15;92.09;99635.16;5045681;28;20049;-51
2022/06/14 00:34:42;;;;;;;;;;;;;;;18.93;91.43;99642.53;5043803;28;20740;-53
2022/06/14 00:37:09;;;;;;;;;;;;;;;19.04;91.33;99642.75;5050002;28;19917;-53
2022/06/14 00:39:34;;;;;;;;;;;;;;;18.73;91.46;99634.03;5026594;28;20498;-51
2022/06/14 00:41:59;;;;;;;;;;;;;;;18.58;92.63;99632.25;5043965;28;19921;-54
2022/06/14 00:44:26;;;;;;;;;;;;;;;18.61;92.88;99624.28;5043941;28;20411;-52
2022/06/14 00:47:07;;;;;;;;;;;;;;;18.68;92.42;99630.84;5046258;28;20000;-56
2022/06/14 00:49:36;;;;;;;;;;;;;;;18.72;92.35;99629.72;5044753;28;19921;-54
2022/06/14 00:52:03;;;;;;;;;;;;;;;18.71;92.47;99617.59;5027982;28;19959;-56
2022/06/14 00:54:35;;;;;;;;;;;;;;;18.69;92.84;99622.06;5028763;28;19920;-54
2022/06/14 00:57:05;;;;;;;;;;;;;;;18.86;91.98;99629.00;5026984;28;20275;-52
2022/06/14 00:59:57;;;;;;;;;;;;;;;18.80;92.84;99624.97;5045236;28;19921;-53
2022/06/14 01:02:23;;;;;;;;;;;;;;;18.70;93.50;99618.56;5040198;28;20098;-52
2022/06/14 01:04:48;;;;;;;;;;;;;;;18.75;93.40;99632.19;5026313;28;19920;-53
2022/06/14 01:07:33;;;;;;;;;;;;;;;18.81;92.52;99631.00;5045185;28;19925;-53
2022/06/14 01:10:06;;;;;;;;;;;;;;;18.55;93.49;99624.59;5027553;28;19920;-53
2022/06/14 01:12:33;;;;;;;;;;;;;;;18.70;94.32;99626.38;5043692;28;19987;-51
2022/06/14 01:15:03;;;;;;;;;;;;;;;18.63;94.84;99622.41;5026874;28;19927;-53
2022/06/14 01:17:28;;;;;;;;;;;;;;;18.58;95.95;99629.66;5028062;28;19921;-54
2022/06/14 01:19:53;;;;;;;;;;;;;;;18.49;96.34;99619.72;5027290;28;20381;-55
2022/06/14 01:22:19;;;;;;;;;;;;;;;18.52;96.01;99630.84;5028244;28;19956;-52
2022/06/14 01:24:44;;;;;;;;;;;;;;;18.36;95.74;99630.81;5044395;28;19921;-54
2022/06/14 01:27:10;;;;;;;;;;;;;;;18.41;95.91;99629.75;5044742;28;19952;-53
2022/06/14 01:29:37;;;;;;;;;;;;;;;18.38;95.26;99628.13;5027579;28;19921;-50
2022/06/14 01:32:03;;;;;;;;;;;;;;;18.35;94.02;99634.34;5040249;28;19921;-53
2022/06/14 01:34:30;;;;;;;;;;;;;;;18.20;93.78;99624.75;5027665;28;19920;-54
2022/06/14 01:36:55;;;;;;;;;;;;;;;17.95;94.69;99626.06;5027472;28;20389;-53
2022/06/14 01:39:20;;;;;;;;;;;;;;;17.74;96.74;99632.31;5047287;28;19917;-52
2022/06/14 01:42:05;;;;;;;;;;;;;;;17.98;95.67;99623.28;5042888;28;19979;-55
2022/06/14 01:44:30;;;;;;;;;;;;;;;18.11;95.87;99622.63;5026940;28;19920;-54
2022/06/14 01:47:11;;;;;;;;;;;;;;;18.12;95.90;99627.75;5024662;28;19927;-53
2022/06/14 01:52:44;;;;;;;;;;;;;;;17.55;98.14;99638.47;5044723;28;19997;-53
2022/06/14 01:55:18;;;;;;;;;;;;;;;17.74;99.77;99647.97;5047182;28;19931;-52
2022/06/14 01:58:02;;;;;;;;;;;;;;;17.79;98.51;99635.56;5029896;28;19930;-52
2022/06/14 02:00:32;;;;;;;;;;;;;;;17.67;98.25;99633.56;5026651;28;19925;-52
2022/06/14 02:06:03;;;;;;;;;;;;;;;17.60;99.31;99620.00;5044262;28;19927;-56
2022/06/14 02:08:30;;;;;;;;;;;;;;;17.82;100.00;99614.59;5043948;28;19994;-56
2022/06/14 02:11:09;;;;;;;;;;;;;;;17.91;98.64;99606.28;5027148;28;19963;-56
2022/06/14 02:13:34;;;;;;;;;;;;;;;18.06;98.43;99611.59;5023270;28;19921;-56
2022/06/14 02:16:06;;;;;;;;;;;;;;;18.05;98.42;99609.94;5043629;28;19928;-56
2022/06/14 02:18:37;;;;;;;;;;;;;;;17.85;98.23;99608.38;5024632;28;19920;-56
2022/06/14 02:21:12;;;;;;;;;;;;;;;18.03;98.09;99601.34;5044453;28;20015;-54
2022/06/14 02:23:39;;;;;;;;;;;;;;;18.03;97.90;99601.34;5023488;28;19925;-55
2022/06/14 02:26:06;;;;;;;;;;;;;;;17.74;98.24;99599.31;5023924;28;20974;-54
2022/06/14 02:28:32;;;;;;;;;;;;;;;17.89;98.83;99600.31;5026081;28;20031;-51
2022/06/14 02:31:03;;;;;;;;;;;;;;;17.87;99.00;99596.94;5023854;28;19920;-55
2022/06/14 02:33:51;;;;;;;;;;;;;;;17.72;97.48;99598.56;5046920;28;20556;-52
2022/06/14 02:36:17;;;;;;;;;;;;;;;17.88;96.98;99596.03;5034615;28;19920;-54
2022/06/14 02:38:44;;;;;;;;;;;;;;;17.76;96.59;99594.00;5024804;28;20357;-54
2022/06/14 02:41:16;;;;;;;;;;;;;;;17.74;96.26;99595.84;5025508;28;19916;-52
2022/06/14 02:43:47;;;;;;;;;;;;;;;17.69;96.04;99595.25;5043097;28;20001;-53
2022/06/14 02:46:13;;;;;;;;;;;;;;;17.45;97.53;99600.81;5026131;28;19959;-52
2022/06/14 02:48:59;;;;;;;;;;;;;;;17.62;98.55;99593.91;5026129;28;19917;-53
2022/06/14 02:51:27;;;;;;;;;;;;;;;17.55;98.41;99606.38;5040983;28;20023;-54
2022/06/14 02:54:00;;;;;;;;;;;;;;;17.60;100.00;99595.75;5038359;28;19917;-55
2022/06/14 02:56:27;;;;;;;;;;;;;;;17.37;100.00;99602.94;5024212;28;19956;-55
2022/06/14 02:58:57;;;;;;;;;;;;;;;17.30;100.00;99598.97;5042275;28;19920;-53
2022/06/14 03:01:24;;;;;;;;;;;;;;;17.56;100.00;99608.06;5023360;28;20460;-53
2022/06/14 03:04:18;;;;;;;;;;;;;;;17.66;100.00;99600.63;5043207;28;19963;-52
2022/06/14 03:06:50;;;;;;;;;;;;;;;17.68;100.00;99598.81;4954917;28;20492;-54
2022/06/14 03:09:17;;;;;;;;;;;;;;;17.69;100.00;99619.53;5041486;28;19920;-55
2022/06/14 03:11:55;;;;;;;;;;;;;;;17.54;100.00;99617.75;5025913;28;20318;-53
2022/06/14 03:14:20;;;;;;;;;;;;;;;17.60;100.00;99620.00;5042390;28;19972;-53
2022/06/14 03:16:57;;;;;;;;;;;;;;;17.42;100.00;99619.19;5041503;28;20362;-55
2022/06/14 03:19:23;;;;;;;;;;;;;;;17.50;100.00;99624.03;5041689;28;20036;-53
2022/06/14 03:21:52;;;;;;;;;;;;;;;17.50;100.00;99624.84;5024260;28;19921;-53
2022/06/14 03:24:17;;;;;;;;;;;;;;;17.55;100.00;99628.06;5040825;28;19925;-52
2022/06/14 03:26:48;;;;;;;;;;;;;;;17.51;100.00;99625.69;5043288;28;20416;-54
2022/06/14 03:29:24;;;;;;;;;;;;;;;17.39;100.00;99626.31;5039236;28;20753;-54
2022/06/14 03:32:11;;;;;;;;;;;;;;;17.32;100.00;99631.81;5007937;28;19968;-54
2022/06/14 03:34:38;;;;;;;;;;;;;;;17.46;100.00;99628.53;5006670;28;19971;-52
2022/06/14 03:37:04;;;;;;;;;;;;;;;17.33;100.00;99627.44;5025872;28;19964;-51
2022/06/14 03:39:30;;;;;;;;;;;;;;;17.45;100.00;99626.84;5021293;28;20039;-53
2022/06/14 03:41:57;;;;;;;;;;;;;;;17.50;100.00;99624.84;5026940;28;19920;-54
2022/06/14 03:44:24;;;;;;;;;;;;;;;17.44;100.00;99625.16;5043551;28;20305;-54
2022/06/14 03:46:51;;;;;;;;;;;;;;;17.51;100.00;99626.53;5041958;28;19924;-54
2022/06/14 03:49:18;;;;;;;;;;;;;;;17.36;100.00;99629.91;5040856;28;19927;-53
2022/06/14 03:51:52;;;;;;;;;;;;;;;17.46;100.00;99632.91;5040969;28;19916;-54
2022/06/14 03:54:31;;;;;;;;;;;;;;;17.24;100.00;99628.78;5041365;28;19920;-54
2022/06/14 03:57:06;;;;;;;;;;;;;;;17.37;100.00;99626.38;5022694;28;21014;-54
2022/06/14 03:59:50;;;;;;;;;;;;;;;17.29;100.00;99626.78;5042754;28;19920;-52
2022/06/14 04:02:52;;;;;;;;;;;;;;;17.41;100.00;99630.53;5026051;28;19917;-53
2022/06/14 04:05:10;;;;;;;;;;;;;;;17.45;100.00;99619.03;5044297;28;19917;-53
2022/06/14 04:07:38;;;;;;;;;;;;;;;17.60;100.00;99621.78;5028084;28;19932;-54
2022/06/14 04:10:06;;;;;;;;;;;;;;;17.43;100.00;99620.03;5046132;28;19921;-55
2022/06/14 04:12:48;;;;;;;;;;;;;;;17.73;100.00;99617.63;5046540;28;20004;-53
2022/06/14 04:15:13;;;;;;;;;;;;;;;17.54;100.00;99620.34;5028682;28;20007;-54
2022/06/14 04:17:41;;;;;;;;;;;;;;;17.71;100.00;99617.69;5045851;28;20019;-52
2022/06/14 04:20:06;;;;;;;;;;;;;;;17.90;100.00;99620.25;5046421;28;19924;-53
2022/06/14 04:22:43;;;;;;;;;;;;;;;17.88;100.00;99618.63;5045389;28;20593;-55
2022/06/14 04:25:09;;;;;;;;;;;;;;;18.05;100.00;99620.34;5049050;28;20424;-55
2022/06/14 04:27:37;;;;;;;;;;;;;;;17.93;100.00;99625.28;5042114;28;19924;-54
2022/06/14 04:30:29;;;;;;;;;;;;;;;18.12;100.00;99625.16;5045822;28;19973;-55
2022/06/14 04:32:56;;;;;;;;;;;;;;;18.17;100.00;99622.28;5025884;28;19916;-54
2022/06/14 04:35:30;;;;;;;;;;;;;;;17.89;100.00;99615.09;5029312;28;19925;-53
2022/06/14 04:38:00;;;;;;;;;;;;;;;17.97;100.00;99619.00;5045074;28;19927;-54
2022/06/14 04:40:26;;;;;;;;;;;;;;;18.37;100.00;99621.22;5026143;28;20286;-53
2022/06/14 04:42:51;;;;;;;;;;;;;;;18.24;100.00;99622.81;5047584;28;20349;-54
2022/06/14 04:45:30;;;;;;;;;;;;;;;18.27;100.00;99630.47;5047792;28;19932;-51
2022/06/14 04:47:58;;;;;;;;;;;;;;;18.25;100.00;99627.97;5027777;28;19983;-54
2022/06/14 04:50:24;;;;;;;;;;;;;;;18.58;100.00;99619.22;5009439;28;19959;-53
2022/06/14 04:52:54;;;;;;;;;;;;;;;18.74;100.00;99617.44;5024650;28;19920;-53
2022/06/14 04:55:28;;;;;;;;;;;;;;;18.52;100.00;99619.53;5025598;28;20401;-53
2022/06/14 04:57:56;;;;;;;;;;;;;;;18.83;100.00;99623.94;5010600;28;20358;-51
2022/06/14 05:00:22;;;;;;;;;;;;;;;18.93;100.00;99625.13;5026936;28;20741;-55
2022/06/14 05:02:49;;;;;;;;;;;;;;;18.97;100.00;99625.78;5027457;28;19921;-54
2022/06/14 05:05:14;;;;;;;;;;;;;;;18.94;100.00;99620.72;5028042;28;19913;-53
2022/06/14 05:07:42;;;;;;;;;;;;;;;19.02;100.00;99614.16;5046089;28;19977;-54
2022/06/14 05:10:17;;;;;;;;;;;;;;;19.05;100.00;99620.13;5046647;28;19934;-52
2022/06/14 05:12:42;;;;;;;;;;;;;;;19.31;100.00;99623.84;5027526;28;19921;-54
2022/06/14 05:15:13;;;;;;;;;;;;;;;19.39;100.00;99621.63;5046439;28;20783;-53
2022/06/14 05:17:43;;;;;;;;;;;;;;;19.26;100.00;99636.31;5027606;28;20342;-53
2022/06/14 05:20:12;;;;;;;;;;;;;;;19.41;100.00;99625.00;5029229;28;20772;-54
2022/06/14 05:23:00;;;;;;;;;;;;;;;19.57;100.00;99617.94;5043186;28;19937;-53
2022/06/14 05:25:31;;;;;;;;;;;;;;;19.64;100.00;99615.81;5030937;28;19917;-54
2022/06/14 05:28:04;;;;;;;;;;;;;;;20.05;100.00;99609.88;5028211;28;20473;-54
2022/06/14 05:30:29;;;;;;;;;;;;;;;20.05;96.67;99609.88;5026988;28;19924;-54
2022/06/14 05:32:55;;;;;;;;;;;;;;;20.38;97.61;99614.78;5045205;28;19921;-52
2022/06/14 05:35:23;;;;;;;;;;;;;;;20.32;97.81;99614.31;5026858;28;20374;-54
2022/06/14 05:37:55;;;;;;;;;;;;;;;20.29;96.99;99615.34;5027112;28;19920;-53
2022/06/14 05:40:25;;;;;;;;;;;;;;;20.38;97.69;99611.31;5045395;28;19923;-53
2022/06/14 05:42:56;;;;;;;;;;;;;;;20.41;97.35;99613.72;5027373;28;20375;-54
2022/06/14 05:45:23;;;;;;;;;;;;;;;20.60;97.64;99610.84;5025510;28;19921;-53
2022/06/14 05:47:49;;;;;;;;;;;;;;;20.60;95.90;99610.84;5025319;28;20446;-55
2022/06/14 05:50:20;;;;;;;;;;;;;;;21.13;96.12;99614.38;5026584;28;19920;-55
2022/06/14 05:52:51;;;;;;;;;;;;;;;21.48;94.84;99611.19;5026533;28;19916;-55
2022/06/14 05:55:16;;;;;;;;;;;;;;;20.89;95.40;99616.78;5043591;28;19913;-56
2022/06/14 05:57:44;;;;;;;;;;;;;;;20.17;95.72;99613.50;5043993;28;20298;-56
2022/06/14 06:00:14;;;;;;;;;;;;;;;21.22;96.26;99605.91;5041404;28;19920;-56
2022/06/14 06:02:51;;;;;;;;;;;;;;;21.64;95.20;99613.63;5023044;28;19920;-56
2022/06/14 06:05:28;;;;;;;;;;;;;;;21.89;92.98;99607.53;5045507;28;19956;-55
2022/06/14 06:08:05;;;;;;;;;;;;;;;21.59;95.77;99615.72;5046000;28;20471;-53
2022/06/14 06:10:32;;;;;;;;;;;;;;;21.82;91.94;99608.91;5042107;28;20470;-56
2022/06/14 06:13:02;;;;;;;;;;;;;;;20.41;97.74;99624.19;5024904;28;19921;-56
2022/06/14 06:15:36;;;;;;;;;;;;;;;21.63;94.18;99615.41;5024560;28;20004;-55
2022/06/14 06:18:04;;;;;;;;;;;;;;;21.08;94.09;99622.53;5044374;28;19913;-55
2022/06/14 06:20:39;;;;;;;;;;;;;;;20.98;96.29;99623.22;5041651;28;20844;-55
2022/06/14 06:23:19;;;;;;;;;;;;;;;19.84;98.81;99632.91;5044391;28;19939;-58
2022/06/14 06:25:48;;;;;;;;;;;;;;;20.02;100.00;99644.03;5042109;28;20516;-56
2022/06/14 06:28:18;;;;;;;;;;;;;;;20.89;98.60;99622.91;5026777;28;19970;-56
2022/06/14 06:30:48;;;;;;;;;;;;;;;21.03;95.70;99629.84;5024207;28;21135;-54
2022/06/14 06:33:13;;;;;;;;;;;;;;;21.23;95.15;99630.31;5025702;28;19916;-54
2022/06/14 06:35:49;;;;;;;;;;;;;;;19.95;100.00;99647.97;5023294;28;19920;-55
2022/06/14 06:38:19;;;;;;;;;;;;;;;20.05;100.00;99644.69;5045663;28;19916;-55
2022/06/14 06:41:49;;;;;;;;;;;;;;;20.62;97.74;99640.38;5024729;28;19974;-55
2022/06/14 06:43:31;;;;;;;;;;;;;;;20.98;98.62;99641.56;5027155;28;20499;-55
2022/06/14 06:45:56;;;;;;;;;;;;;;;20.72;97.20;99636.22;5023724;28;19925;-56
2022/06/14 06:48:23;;;;;;;;;;;;;;;20.61;99.34;99647.38;5028258;28;20020;-56
2022/06/14 06:50:49;;;;;;;;;;;;;;;20.98;98.01;99652.03;5024022;28;19970;-55
2022/06/14 06:53:15;;;;;;;;;;;;;;;21.52;93.84;99644.13;5022151;28;19920;-56
2022/06/14 06:55:48;;;;;;;;;;;;;;;20.65;97.52;99650.63;5041576;28;19920;-56
2022/06/14 06:58:27;;;;;;;;;;;;;;;20.77;98.96;99647.22;5023638;28;20289;-55
2022/06/14 07:00:56;;;;;;;;;;;;;;;21.62;94.29;99646.97;5022694;28;20004;-53
2022/06/14 07:03:39;;;;;;;;;;;;;;;21.44;97.14;99655.13;5042254;28;19947;-55
2022/06/14 07:06:05;;;;;;;;;;;;;;;21.64;99.45;99651.16;5041414;28;19947;-56
2022/06/14 07:08:45;;;;;;;;;;;;;;;22.21;91.58;99644.66;5025082;28;19948;-56
2022/06/14 07:11:12;;;;;;;;;;;;;;;20.19;100.00;99656.94;5024097;28;19995;-56
2022/06/14 07:13:46;;;;;;;;;;;;;;;21.79;96.72;99651.91;5022759;28;19924;-55
2022/06/14 07:16:31;;;;;;;;;;;;;;;22.31;91.89;99643.09;5023290;28;19928;-56
2022/06/14 07:18:59;;;;;;;;;;;;;;;22.21;93.71;99646.41;5024310;28;19916;-54
2022/06/14 07:21:36;;;;;;;;;;;;;;;21.78;97.40;99647.63;5043744;28;20016;-55
2022/06/14 07:24:01;;;;;;;;;;;;;;;22.09;96.54;99651.56;5025129;28;19931;-56
2022/06/14 07:26:45;;;;;;;;;;;;;;;21.88;92.24;99653.06;5042211;28;19920;-55
2022/06/14 07:29:12;;;;;;;;;;;;;;;22.33;89.85;99645.63;5041495;28;19947;-56
2022/06/14 07:31:40;;;;;;;;;;;;;;;21.89;94.98;99649.50;5027746;28;19920;-54
2022/06/14 07:34:06;;;;;;;;;;;;;;;22.28;85.47;99650.31;5042127;28;19982;-56
2022/06/14 07:36:37;;;;;;;;;;;;;;;23.15;83.86;99640.63;5005040;28;19925;-55
2022/06/14 07:39:21;;;;;;;;;;;;;;;23.20;86.16;99642.91;5040870;28;19923;-56
2022/06/14 07:41:46;;;;;;;;;;;;;;;21.86;89.24;99649.72;5044552;28;19967;-57
2022/06/14 07:44:27;;;;;;;;;;;;;;;22.21;92.27;99638.56;5046550;28;20003;-57
2022/06/14 07:46:55;;;;;;;;;;;;;;;22.37;91.74;99638.34;5041720;28;19925;-56
2022/06/14 07:49:25;;;;;;;;;;;;;;;23.14;84.58;99638.91;5009841;28;20362;-56
2022/06/14 07:51:55;;;;;;;;;;;;;;;22.92;85.86;99637.84;5045070;28;19916;-57
2022/06/14 07:54:23;;;;;;;;;;;;;;;21.93;89.28;99653.59;5028570;28;19928;-57
2022/06/14 07:56:53;;;;;;;;;;;;;;;21.62;92.78;99647.81;5028214;28;19917;-56
2022/06/14 07:59:38;;;;;;;;;;;;;;;22.10;90.43;99642.78;5027932;28;20539;-56
2022/06/14 08:02:05;;;;;;;;;;;;;;;23.29;85.76;99637.78;5023791;28;19924;-57
2022/06/14 08:04:30;;;;;;;;;;;;;;;23.47;80.39;99634.72;5023771;28;19958;-56
2022/06/14 08:07:00;;;;;;;;;;;;;;;23.43;76.24;99630.66;5044186;28;20066;-57
2022/06/14 08:09:27;;;;;;;;;;;;;;;23.18;83.01;99640.38;5027732;28;19931;-55
2022/06/14 08:11:54;;;;;;;;;;;;;;;22.95;86.96;99637.63;5046566;28;19938;-56
2022/06/14 08:14:40;;;;;;;;;;;;;;;21.80;95.21;99645.72;5023988;28;20324;-56
2022/06/14 08:17:08;;;;;;;;;;;;;;;23.53;86.54;99634.25;5026235;28;20530;-56
2022/06/14 08:19:40;;;;;;;;;;;;;;;22.75;83.35;99628.56;5027541;28;19971;-57
2022/06/14 08:22:07;;;;;;;;;;;;;;;21.76;90.35;99639.03;5032618;28;21030;-57
2022/06/14 08:24:36;;;;;;;;;;;;;;;21.57;89.06;99642.03;5025825;28;19971;-57
2022/06/14 08:27:05;;;;;;;;;;;;;;;22.32;90.13;99633.41;5027835;28;20570;-57
2022/06/14 08:29:33;;;;;;;;;;;;;;;24.06;84.43;99624.03;5042601;28;19920;-56
2022/06/14 08:32:00;;;;;;;;;;;;;;;23.85;84.13;99623.09;5030751;28;19916;-55
2022/06/14 08:34:36;;;;;;;;;;;;;;;24.47;80.72;99624.38;5024797;28;19962;-56
2022/06/14 08:37:25;;;;;;;;;;;;;;;22.88;81.34;99630.31;5025122;28;20409;-56
2022/06/14 08:39:55;;;;;;;;;;;;;;;24.00;81.23;99622.75;5016533;28;19924;-56
2022/06/14 08:42:27;;;;;;;;;;;;;;;24.29;77.21;99618.78;5026769;28;19939;-56
2022/06/14 08:44:58;;;;;;;;;;;;;;;23.90;79.91;99615.69;5044460;28;20497;-56
2022/06/14 08:47:24;;;;;;;;;;;;;;;23.10;80.97;99632.22;5044052;28;19932;-58
2022/06/14 08:49:52;;;;;;;;;;;;;;;24.50;75.71;99613.66;5043334;28;19920;-58
2022/06/14 08:52:39;;;;;;;;;;;;;;;25.48;68.66;99618.78;5041890;28;20289;-58
2022/06/14 08:55:17;;;;;;;;;;;;;;;23.54;78.27;99639.41;5043502;28;20749;-56
2022/06/14 08:58:01;;;;;;;;;;;;;;;23.90;78.75;99626.19;5029889;28;20340;-56
2022/06/14 09:00:29;;;;;;;;;;;;;;;23.42;73.56;99627.16;5041909;28;21434;-56
2022/06/14 09:03:15;;;;;;;;;;;;;;;25.55;65.98;99613.81;5044699;28;19920;-55
2022/06/14 09:05:44;;;;;;;;;;;;;;;24.81;68.58;99622.53;5027135;28;20886;-56
2022/06/14 09:08:28;;;;;;;;;;;;;;;23.25;72.41;99636.34;5047163;28;19932;-56
2022/06/14 09:10:59;;;;;;;;;;;;;;;24.37;71.19;99613.75;5044846;28;20301;-57
2022/06/14 09:13:24;;;;;;;;;;;;;;;24.14;73.68;99613.78;5046037;28;19924;-56
2022/06/14 09:16:04;;;;;;;;;;;;;;;25.72;58.25;99607.09;5044989;28;19917;-56
2022/06/14 09:18:30;;;;;;;;;;;;;;;25.91;59.36;99617.78;5045426;28;19921;-56
2022/06/14 09:21:10;;;;;;;;;;;;;;;23.62;65.79;99624.84;5045319;28;19924;-56
2022/06/14 09:23:36;;;;;;;;;;;;;;;23.87;68.58;99613.31;5043901;28;19924;-56
2022/06/14 09:26:20;;;;;;;;;;;;;;;24.41;68.71;99609.91;5044963;28;19912;-56
2022/06/14 09:29:13;;;;;;;;;;;;;;;27.25;55.95;99608.59;5042403;28;20494;-57
2022/06/14 09:32:00;;;;;;;;;;;;;;;27.70;50.50;99594.72;5028579;28;19913;-56
2022/06/14 09:34:43;;;;;;;;;;;;;;;28.78;45.49;99588.72;5044936;28;19960;-57
2022/06/14 09:37:12;;;;;;;;;;;;;;;25.46;56.71;99607.53;5029291;28;19917;-57
2022/06/14 09:39:42;;;;;;;;;;;;;;;23.99;68.49;99614.97;5045360;28;19947;-56
2022/06/14 09:42:07;;;;;;;;;;;;;;;23.67;67.59;99607.75;5028360;28;19935;-56
2022/06/14 09:44:32;;;;;;;;;;;;;;;24.09;68.51;99610.66;5042837;28;19921;-56
2022/06/14 09:47:01;;;;;;;;;;;;;;;24.28;66.84;99607.41;5043992;28;19921;-55
2022/06/14 09:49:31;;;;;;;;;;;;;;;25.21;67.48;99609.56;5043394;28;19994;-57
2022/06/14 09:52:20;;;;;;;;;;;;;;;26.23;61.07;99601.78;5043682;28;19924;-56
2022/06/14 09:55:04;;;;;;;;;;;;;;;25.23;63.63;99618.19;5045295;28;20902;-56
2022/06/14 09:57:29;;;;;;;;;;;;;;;24.93;60.24;99611.00;5043696;28;20672;-56
2022/06/14 10:00:00;;;;;;;;;;;;;;;25.50;58.77;99613.34;5040730;28;20059;-57
2022/06/14 10:02:26;;;;;;;;;;;;;;;25.42;65.89;99604.28;5043936;28;20023;-56
2022/06/14 10:04:54;;;;;;;;;;;;;;;26.45;57.63;99603.34;5044081;28;20007;-56
2022/06/14 10:07:45;;;;;;;;;;;;;;;25.85;65.43;99603.28;5044854;28;20206;-56
2022/06/14 10:10:32;;;;;;;;;;;;;;;24.81;65.50;99611.97;5027887;28;19921;-56
2022/06/14 10:12:57;;;;;;;;;;;;;;;25.68;61.28;99603.88;5047402;28;19949;-56
2022/06/14 10:15:31;;;;;;;;;;;;;;;25.46;61.07;99600.44;5045886;28;19920;-56
2022/06/14 10:18:19;;;;;;;;;;;;;;;26.49;55.73;99601.28;5042940;28;19920;-57
2022/06/14 10:20:58;;;;;;;;;;;;;;;28.72;45.31;99583.22;5024824;28;19939;-57
2022/06/14 10:23:30;;;;;;;;;;;;;;;26.19;55.41;99603.03;5026400;28;20275;-57
2022/06/14 10:29:14;;;;;;;;;;;;;;;26.37;58.15;99599.75;4960295;28;20391;-56
2022/06/14 10:31:47;;;;;;;;;;;;;;;26.39;53.27;99597.78;5035458;28;19964;-55
2022/06/14 10:34:20;;;;;;;;;;;;;;;25.88;59.26;99600.41;5024220;28;19947;-55
2022/06/14 10:36:57;;;;;;;;;;;;;;;27.12;53.70;99585.91;5031796;28;20311;-55
2022/06/14 10:39:33;;;;;;;;;;;;;;;26.92;49.33;99593.00;5042211;28;19917;-56
2022/06/14 10:42:06;;;;;;;;;;;;;;;26.53;54.28;99597.41;5044976;28;19931;-56
2022/06/14 10:44:32;;;;;;;;;;;;;;;27.50;51.42;99581.53;5043514;28;19921;-57
2022/06/14 10:47:09;;;;;;;;;;;;;;;27.58;50.83;99582.66;5047289;28;19974;-57
2022/06/14 10:49:55;;;;;;;;;;;;;;;27.09;46.88;99580.06;5036182;28;19965;-56
2022/06/14 10:52:25;;;;;;;;;;;;;;;25.12;57.58;99583.94;5001873;28;19970;-56
2022/06/14 10:54:55;;;;;;;;;;;;;;;24.85;66.66;99584.44;5046592;28;19927;-56
2022/06/14 10:57:20;;;;;;;;;;;;;;;25.82;64.61;99571.88;5026324;28;19921;-55
2022/06/14 11:00:04;;;;;;;;;;;;;;;25.00;62.88;99580.53;5042454;28;19923;-56
2022/06/14 11:02:47;;;;;;;;;;;;;;;25.16;63.32;99566.91;5044385;28;20756;-56
2022/06/14 11:05:21;;;;;;;;;;;;;;;26.85;57.17;99560.19;5043089;28;19927;-56
2022/06/14 11:07:56;;;;;;;;;;;;;;;26.91;53.41;99564.06;5044424;28;19931;-56
2022/06/14 11:10:53;;;;;;;;;;;;;;;28.47;52.37;99555.63;5040955;28;19920;-56
2022/06/14 11:13:37;;;;;;;;;;;;;;;28.59;51.43;99557.06;4987497;28;19912;-57
2022/06/14 11:16:17;;;;;;;;;;;;;;;26.85;47.05;99559.34;5039967;28;19921;-56
2022/06/14 11:18:45;;;;;;;;;;;;;;;27.04;49.93;99559.31;5044769;28;19928;-57
2022/06/14 11:21:11;;;;;;;;;;;;;;;27.04;49.91;99551.38;5040983;28;20301;-56
2022/06/14 11:23:47;;;;;;;;;;;;;;;27.85;44.81;99543.00;5045361;28;19920;-56
2022/06/14 11:26:23;;;;;;;;;;;;;;;25.66;50.76;99547.81;5009041;28;19924;-56
2022/06/14 11:28:52;;;;;;;;;;;;;;;27.68;52.52;99541.91;5040901;28;19929;-56
2022/06/14 11:31:34;;;;;;;;;;;;;;;27.56;52.91;99539.63;5023015;28;20043;-56
2022/06/14 11:34:05;;;;;;;;;;;;;;;28.76;47.28;99532.38;5026317;28;19916;-56
2022/06/14 11:36:49;;;;;;;;;;;;;;;30.80;40.45;99528.97;5042789;28;20413;-55
2022/06/14 11:39:17;;;;;;;;;;;;;;;30.13;42.61;99531.69;5041911;28;20377;-57
2022/06/14 11:41:47;;;;;;;;;;;;;;;29.50;40.87;99527.59;5044747;28;19917;-56
2022/06/14 11:44:18;;;;;;;;;;;;;;;29.42;44.79;99532.03;5044006;28;20386;-57
2022/06/14 11:47:05;;;;;;;;;;;;;;;29.23;49.76;99522.47;5045437;28;19959;-54
2022/06/14 11:49:39;;;;;;;;;;;;;;;29.46;45.20;99523.59;5022498;28;20554;-57
2022/06/14 11:52:11;;;;;;;;;;;;;;;30.01;42.31;99517.03;5027479;28;19975;-56
2022/06/14 11:54:42;;;;;;;;;;;;;;;28.54;47.42;99516.94;5044803;28;20054;-56
2022/06/14 11:57:11;;;;;;;;;;;;;;;29.00;45.25;99520.28;5042411;28;19924;-56
2022/06/14 11:59:42;;;;;;;;;;;;;;;30.33;38.83;99504.84;5015061;28;19925;-56
2022/06/14 12:02:11;;;;;;;;;;;;;;;30.41;41.09;99507.53;5041289;28;20019;-56
2022/06/14 12:04:54;;;;;;;;;;;;;;;31.53;42.42;99503.28;5042276;28;19927;-56
2022/06/14 12:07:39;;;;;;;;;;;;;;;31.57;43.60;99504.59;5043628;28;20332;-56
2022/06/14 12:10:10;;;;;;;;;;;;;;;29.70;44.80;99509.66;5040106;28;19921;-57
2022/06/14 12:12:54;;;;;;;;;;;;;;;29.76;42.62;99502.84;5039463;28;19974;-55
2022/06/14 12:15:51;;;;;;;;;;;;;;;30.85;39.86;99505.38;5040927;28;19924;-56
2022/06/14 12:18:17;;;;;;;;;;;;;;;31.21;41.04;99510.34;5009273;28;19966;-56
2022/06/14 12:20:43;;;;;;;;;;;;;;;30.89;38.86;99515.72;5021882;28;20266;-57
2022/06/14 12:23:15;;;;;;;;;;;;;;;29.53;42.28;99508.69;5023053;28;19943;-56
2022/06/14 12:28:30;;;;;;;;;;;;;;;32.42;38.27;99493.16;5045284;28;20031;-56
2022/06/14 12:31:04;;;;;;;;;;;;;;;32.46;37.15;99490.97;5044733;28;19978;-55
2022/06/14 12:33:30;;;;;;;;;;;;;;;30.43;40.60;99506.38;5030393;28;20066;-56
2022/06/14 12:36:01;;;;;;;;;;;;;;;28.72;41.22;99493.91;5045038;28;20345;-56
2022/06/14 12:38:27;;;;;;;;;;;;;;;28.83;42.31;99489.34;5030015;28;19927;-56
2022/06/14 12:40:55;;;;;;;;;;;;;;;30.16;41.17;99482.72;5026155;28;19928;-57
2022/06/14 12:43:23;;;;;;;;;;;;;;;30.88;41.59;99482.94;5026585;28;19927;-55
2022/06/14 12:46:01;;;;;;;;;;;;;;;28.82;44.14;99493.00;5046877;28;19964;-56
2022/06/14 12:48:32;;;;;;;;;;;;;;;28.08;45.69;99479.06;5047219;28;19972;-56
2022/06/14 12:51:03;;;;;;;;;;;;;;;28.67;44.79;99477.66;5048882;28;19925;-55
2022/06/14 12:53:47;;;;;;;;;;;;;;;28.46;46.13;99477.09;5045820;28;19916;-56
2022/06/14 12:56:17;;;;;;;;;;;;;;;28.85;45.75;99471.47;5046759;28;19921;-54
2022/06/14 12:58:43;;;;;;;;;;;;;;;30.88;40.86;99466.16;5046357;28;19959;-55
2022/06/14 13:01:11;;;;;;;;;;;;;;;33.06;38.47;99457.28;5044422;28;20018;-56
2022/06/14 13:03:41;;;;;;;;;;;;;;;33.62;36.26;99452.31;5048417;28;19960;-55
2022/06/14 13:06:09;;;;;;;;;;;;;;;30.35;38.51;99461.16;5048839;28;19920;-56
2022/06/14 13:08:42;;;;;;;;;;;;;;;32.12;38.66;99454.06;5048094;28;20082;-56
2022/06/14 13:11:26;;;;;;;;;;;;;;;30.20;39.42;99452.19;5027134;28;19955;-55
2022/06/14 13:13:57;;;;;;;;;;;;;;;31.03;38.44;99440.53;5046225;28;20001;-56
2022/06/14 13:16:28;;;;;;;;;;;;;;;30.68;37.90;99449.69;5046382;28;19924;-56
2022/06/14 13:19:15;;;;;;;;;;;;;;;28.90;41.11;99432.09;5045082;28;19974;-55
2022/06/14 13:21:57;;;;;;;;;;;;;;;29.51;43.36;99444.31;5028322;28;19928;-56
2022/06/14 13:24:41;;;;;;;;;;;;;;;32.02;39.12;99431.16;5027481;28;19932;-54